createdAt,value
2019-01-17T00:00:36.592Z,15.90
2019-01-17T00:03:25.909Z,17.03
2019-01-17T00:06:06.883Z,15.33
2019-01-17T00:08:55.906Z,15.97
2019-01-17T00:11:36.385Z,14.87
2019-01-17T00:14:41.483Z,14.87
2019-01-17T00:17:37.317Z,14.97
2019-01-17T00:20:35.062Z,14.53
2019-01-17T00:23:17.202Z,13.93
2019-01-17T00:26:02.257Z,13.57
2019-01-17T00:28:50.974Z,13.70
2019-01-17T00:31:46.617Z,12.70
2019-01-17T00:34:42.293Z,13.43
2019-01-17T00:37:34.893Z,12.83
2019-01-17T00:40:20.010Z,12.43
2019-01-17T00:43:00.531Z,11.83
2019-01-17T00:45:45.722Z,13.13
2019-01-17T00:48:24.418Z,12.40
2019-01-17T00:51:16.642Z,12.60
2019-01-17T00:54:14.753Z,11.93
2019-01-17T00:57:07.369Z,12.07
2019-01-17T01:00:11.715Z,12.90
2019-01-17T01:02:57.115Z,11.77
2019-01-17T01:05:33.714Z,11.20
2019-01-17T01:08:23.163Z,10.63
2019-01-17T01:11:08.825Z,9.07
2019-01-17T01:13:48.400Z,9.20
2019-01-17T01:16:44.921Z,8.77
2019-01-17T01:19:24.385Z,9.13
2019-01-17T01:22:24.232Z,8.73
2019-01-17T01:25:06.376Z,7.23
2019-01-17T01:27:51.906Z,6.00
2019-01-17T01:30:41.398Z,4.77
2019-01-17T01:33:26.282Z,3.87
2019-01-17T01:36:04.254Z,3.13
2019-01-17T01:38:59.591Z,2.20
2019-01-17T01:41:38.486Z,1.57
2019-01-17T01:44:32.932Z,1.80
2019-01-17T01:47:18.370Z,1.60
2019-01-17T01:49:55.723Z,2.10
2019-01-17T01:52:33.163Z,1.80
2019-01-17T01:54:59.988Z,1.70
2019-01-17T01:57:27.003Z,1.47
2019-01-17T01:59:53.875Z,1.47
2019-01-17T02:02:20.685Z,1.23
2019-01-17T02:04:47.582Z,1.90
2019-01-17T02:07:14.537Z,1.40
2019-01-17T02:09:41.538Z,1.67
2019-01-17T02:12:08.538Z,1.50
2019-01-17T02:14:35.686Z,1.53
2019-01-17T02:17:02.898Z,1.33
2019-01-17T02:19:29.705Z,1.37
2019-01-17T02:21:56.678Z,1.17
2019-01-17T02:24:28.533Z,1.50
2019-01-17T02:26:52.334Z,1.50
2019-01-17T02:29:19.278Z,1.27
2019-01-17T02:31:46.204Z,1.17
2019-01-17T02:34:13.011Z,1.70
2019-01-17T02:36:39.934Z,1.30
2019-01-17T02:39:07.230Z,1.27
2019-01-17T02:41:34.144Z,2.20
2019-01-17T02:44:01.294Z,1.20
2019-01-17T02:46:28.515Z,1.63
2019-01-17T02:48:55.313Z,1.57
2019-01-17T02:51:22.409Z,1.50
2019-01-17T02:53:49.237Z,1.67
2019-01-17T02:56:16.153Z,1.70
2019-01-17T02:58:43.002Z,1.50
2019-01-17T03:01:10.021Z,1.40
2019-01-17T03:03:36.958Z,1.20
2019-01-17T03:06:05.032Z,0.90
2019-01-17T03:08:31.944Z,1.30
2019-01-17T03:11:01.005Z,0.80
2019-01-17T03:13:27.960Z,2.57
2019-01-17T03:15:55.073Z,1.00
2019-01-17T03:18:22.084Z,1.03
2019-01-17T03:20:49.289Z,1.20
2019-01-17T03:23:16.382Z,0.83
2019-01-17T03:25:43.331Z,1.00
2019-01-17T03:28:10.278Z,0.90
2019-01-17T03:30:37.076Z,1.00
2019-01-17T03:33:04.105Z,0.77
2019-01-17T03:35:31.148Z,1.10
2019-01-17T03:37:58.175Z,0.90
2019-01-17T03:40:25.192Z,1.00
2019-01-17T03:42:52.140Z,1.37
2019-01-17T03:45:19.049Z,1.30
2019-01-17T03:47:46.091Z,1.53
2019-01-17T03:50:14.297Z,1.20
2019-01-17T03:52:41.351Z,1.00
2019-01-17T03:55:10.246Z,1.70
2019-01-17T03:57:37.286Z,1.30
2019-01-17T04:00:06.392Z,1.20
2019-01-17T04:02:33.306Z,1.83
2019-01-17T04:05:00.529Z,1.23
2019-01-17T04:07:27.650Z,1.17
2019-01-17T04:09:54.542Z,1.43
2019-01-17T04:12:21.476Z,0.93
2019-01-17T04:14:48.599Z,1.37
2019-01-17T04:17:15.630Z,0.77
2019-01-17T04:19:42.484Z,2.27
2019-01-17T04:22:09.517Z,1.47
2019-01-17T04:24:39.931Z,1.00
2019-01-17T04:27:06.866Z,1.50
2019-01-17T04:29:33.773Z,1.10
2019-01-17T04:32:00.687Z,1.50
2019-01-17T04:34:27.633Z,1.50
2019-01-17T04:36:54.545Z,1.40
2019-01-17T04:39:21.556Z,1.40
2019-01-17T04:41:48.498Z,1.73
2019-01-17T04:44:15.331Z,1.30
2019-01-17T04:46:42.340Z,1.67
2019-01-17T04:49:09.255Z,1.83
2019-01-17T04:51:36.150Z,1.47
2019-01-17T04:54:03.606Z,1.77
2019-01-17T04:56:30.562Z,1.97
2019-01-17T04:58:57.492Z,1.60
2019-01-17T05:01:24.333Z,1.37
2019-01-17T05:03:51.377Z,1.37
2019-01-17T05:06:18.298Z,1.53
2019-01-17T05:08:45.090Z,2.27
2019-01-17T05:11:12.149Z,1.40
2019-01-17T05:13:39.109Z,1.17
2019-01-17T05:16:06.142Z,1.67
2019-01-17T05:18:33.439Z,2.30
2019-01-17T05:21:01.405Z,2.37
2019-01-17T05:23:28.333Z,1.70
2019-01-17T05:25:55.310Z,1.67
2019-01-17T05:28:22.227Z,1.57
2019-01-17T05:30:49.146Z,1.60
2019-01-17T05:33:16.104Z,2.23
2019-01-17T05:35:43.007Z,1.60
2019-01-17T05:38:09.939Z,1.73
2019-01-17T05:40:36.874Z,1.80
2019-01-17T05:43:04.423Z,1.20
2019-01-17T05:45:31.449Z,1.63
2019-01-17T05:47:58.493Z,1.70
2019-01-17T05:50:25.550Z,2.73
2019-01-17T05:52:52.465Z,1.63
2019-01-17T05:55:20.293Z,1.93
2019-01-17T05:57:47.569Z,1.83
2019-01-17T06:00:16.969Z,2.13
2019-01-17T06:02:44.072Z,1.97
2019-01-17T06:05:12.037Z,1.87
2019-01-17T06:07:38.953Z,2.30
2019-01-17T06:10:07.643Z,2.00
2019-01-17T06:12:34.701Z,2.03
2019-01-17T06:15:01.574Z,1.90
2019-01-17T06:17:28.534Z,2.00
2019-01-17T06:19:55.446Z,2.50
2019-01-17T06:22:22.263Z,2.23
2019-01-17T06:24:49.192Z,1.80
2019-01-17T06:27:16.121Z,3.03
2019-01-17T06:29:42.934Z,2.30
2019-01-17T06:32:10.013Z,2.30
2019-01-17T06:34:36.944Z,2.17
2019-01-17T06:37:03.970Z,2.00
2019-01-17T06:39:30.866Z,2.13
2019-01-17T06:41:57.887Z,1.93
2019-01-17T06:44:24.830Z,3.57
2019-01-17T06:46:51.805Z,2.17
2019-01-17T06:49:18.831Z,1.90
2019-01-17T06:51:45.775Z,2.30
2019-01-17T06:54:14.774Z,2.67
2019-01-17T06:56:41.614Z,2.20
2019-01-17T06:59:08.614Z,2.13
2019-01-17T07:01:35.786Z,2.10
2019-01-17T07:04:02.808Z,3.27
2019-01-17T07:06:29.806Z,2.20
2019-01-17T07:08:56.819Z,2.60
2019-01-17T07:11:23.838Z,2.60
2019-01-17T07:13:50.771Z,2.40
2019-01-17T07:16:17.828Z,2.73
2019-01-17T07:18:44.748Z,2.30
2019-01-17T07:21:11.685Z,2.37
2019-01-17T07:23:38.563Z,2.70
2019-01-17T07:26:05.826Z,2.53
2019-01-17T07:28:32.750Z,1.90
2019-01-17T07:30:59.724Z,1.90
2019-01-17T07:33:26.547Z,2.20
2019-01-17T07:35:53.585Z,2.30
2019-01-17T07:38:21.301Z,2.33
2019-01-17T07:40:48.344Z,2.87
2019-01-17T07:43:15.268Z,2.03
2019-01-17T07:45:42.142Z,2.30
2019-01-17T07:48:09.134Z,2.20
2019-01-17T07:50:36.150Z,2.00
2019-01-17T07:53:03.383Z,2.70
2019-01-17T07:55:30.347Z,1.63
2019-01-17T07:57:57.181Z,1.67
2019-01-17T08:00:24.147Z,3.00
2019-01-17T08:02:51.162Z,2.07
2019-01-17T08:05:18.123Z,2.07
2019-01-17T08:07:45.522Z,2.07
2019-01-17T08:10:14.176Z,2.20
2019-01-17T08:12:41.275Z,1.83
2019-01-17T08:15:09.223Z,2.27
2019-01-17T08:17:36.417Z,1.60
2019-01-17T08:20:05.055Z,1.90
2019-01-17T08:22:31.915Z,2.07
2019-01-17T08:24:58.711Z,1.80
2019-01-17T08:27:25.607Z,2.40
2019-01-17T08:29:55.122Z,1.90
2019-01-17T08:32:21.922Z,1.70
2019-01-17T08:34:48.818Z,2.40
2019-01-17T08:37:15.678Z,1.87
2019-01-17T08:39:42.713Z,1.80
2019-01-17T08:42:09.628Z,2.13
2019-01-17T08:44:36.694Z,3.90
2019-01-17T08:47:03.729Z,3.67
2019-01-17T08:49:30.750Z,2.60
2019-01-17T08:51:57.682Z,2.70
2019-01-17T08:54:24.716Z,2.20
2019-01-17T08:56:51.558Z,2.27
2019-01-17T08:59:18.538Z,2.63
2019-01-17T09:01:45.439Z,2.03
2019-01-17T09:04:12.353Z,3.07
2019-01-17T09:06:39.314Z,2.37
2019-01-17T09:09:08.251Z,2.77
2019-01-17T09:11:35.259Z,2.57
2019-01-17T09:14:02.214Z,2.30
2019-01-17T09:16:29.231Z,2.83
2019-01-17T09:18:56.142Z,2.20
2019-01-17T09:21:22.992Z,2.20
2019-01-17T09:23:49.886Z,2.40
2019-01-17T09:26:16.816Z,1.83
2019-01-17T09:28:43.766Z,1.70
2019-01-17T09:31:10.675Z,2.13
2019-01-17T09:33:37.682Z,2.67
2019-01-17T09:36:04.885Z,1.80
2019-01-17T09:38:31.979Z,2.03
2019-01-17T09:40:58.901Z,2.00
2019-01-17T09:43:25.846Z,1.17
2019-01-17T09:45:52.843Z,1.27
2019-01-17T09:48:19.646Z,0.93
2019-01-17T09:50:46.726Z,0.80
2019-01-17T09:53:13.648Z,1.23
2019-01-17T09:55:40.649Z,1.10
2019-01-17T09:58:07.611Z,1.10
2019-01-17T10:00:34.678Z,1.57
2019-01-17T10:03:01.598Z,1.10
2019-01-17T10:05:28.671Z,1.13
2019-01-17T10:07:55.720Z,0.97
2019-01-17T10:10:24.053Z,0.70
2019-01-17T10:12:51.190Z,0.70
2019-01-17T10:15:34.588Z,0.50
2019-01-17T10:18:31.346Z,0.50
2019-01-17T10:21:49.113Z,0.40
2019-01-17T10:24:23.874Z,0.80
2019-01-17T10:27:21.927Z,0.70
2019-01-17T10:30:52.630Z,1.10
2019-01-17T10:34:09.584Z,1.20
2019-01-17T10:37:00.681Z,0.60
2019-01-17T10:40:14.930Z,0.47
2019-01-17T10:43:03.877Z,0.30
2019-01-17T10:46:14.535Z,0.47
2019-01-17T10:49:06.382Z,0.30
2019-01-17T10:52:15.594Z,0.50
2019-01-17T10:55:22.294Z,0.40
2019-01-17T10:58:08.505Z,0.50
2019-01-17T11:01:14.663Z,0.60
2019-01-17T11:04:09.162Z,1.03
2019-01-17T11:07:09.065Z,0.60
2019-01-17T11:10:06.087Z,0.70
2019-01-17T11:13:00.736Z,0.40
2019-01-17T11:16:19.919Z,0.60
2019-01-17T11:19:29.045Z,0.50
2019-01-17T11:22:19.513Z,0.30
2019-01-17T11:25:08.887Z,0.27
2019-01-17T11:27:58.424Z,0.30
2019-01-17T11:31:16.805Z,0.27
2019-01-17T11:34:06.551Z,0.30
2019-01-17T11:37:07.909Z,0.40
2019-01-17T11:40:21.724Z,0.50
2019-01-17T11:43:06.769Z,0.57
2019-01-17T11:46:01.920Z,0.90
2019-01-17T11:49:24.806Z,1.00
2019-01-17T11:52:47.965Z,0.40
2019-01-17T11:55:48.038Z,0.50
2019-01-17T11:58:29.279Z,0.60
2019-01-17T12:01:23.925Z,0.80
2019-01-17T12:04:30.861Z,0.93
2019-01-17T12:07:00.363Z,0.77
2019-01-17T12:09:27.163Z,0.63
2019-01-17T12:11:54.519Z,0.60
2019-01-17T12:14:21.449Z,0.60
2019-01-17T12:16:48.371Z,0.90
2019-01-17T12:19:15.282Z,0.90
2019-01-17T12:21:42.417Z,0.73
2019-01-17T12:24:09.310Z,0.90
2019-01-17T12:26:36.313Z,0.87
2019-01-17T12:29:03.505Z,1.00
2019-01-17T12:31:30.302Z,1.37
2019-01-17T12:33:57.089Z,1.20
2019-01-17T12:36:23.934Z,1.00
2019-01-17T12:38:50.729Z,0.63
2019-01-17T12:41:17.557Z,0.60
2019-01-17T12:43:44.406Z,0.60
2019-01-17T12:46:30.944Z,0.70
2019-01-17T12:48:57.806Z,0.80
2019-01-17T12:51:24.934Z,0.60
2019-01-17T12:53:51.838Z,0.73
2019-01-17T12:56:18.677Z,0.57
2019-01-17T12:58:45.593Z,0.97
2019-01-17T13:01:12.529Z,1.03
2019-01-17T13:03:39.585Z,1.10
2019-01-17T13:06:06.521Z,1.23
2019-01-17T13:08:33.529Z,1.40
2019-01-17T13:11:00.573Z,1.70
2019-01-17T13:13:27.481Z,0.90
2019-01-17T13:15:54.394Z,1.17
2019-01-17T13:18:21.327Z,1.00
2019-01-17T13:20:48.344Z,1.30
2019-01-17T13:23:15.342Z,1.60
2019-01-17T13:25:42.403Z,1.00
2019-01-17T13:28:09.429Z,0.70
2019-01-17T13:30:39.296Z,0.63
2019-01-17T13:33:06.365Z,1.20
2019-01-17T13:35:33.311Z,0.47
2019-01-17T13:38:00.243Z,1.20
2019-01-17T13:40:27.284Z,0.90
2019-01-17T13:42:54.274Z,0.53
2019-01-17T13:45:21.310Z,0.90
2019-01-17T13:47:48.359Z,0.70
2019-01-17T13:50:15.381Z,0.60
2019-01-17T13:52:42.407Z,0.80
2019-01-17T13:55:09.512Z,0.90
2019-01-17T13:57:36.339Z,0.93
2019-01-17T14:00:07.303Z,0.67
2019-01-17T14:02:34.372Z,0.40
2019-01-17T14:05:01.349Z,0.60
2019-01-17T14:07:28.222Z,0.87
2019-01-17T14:09:55.068Z,0.70
2019-01-17T14:12:21.878Z,0.70
2019-01-17T14:14:48.769Z,0.87
2019-01-17T14:17:15.601Z,0.90
2019-01-17T14:19:42.620Z,0.60
2019-01-17T14:22:09.542Z,0.70
2019-01-17T14:24:36.588Z,0.80
2019-01-17T14:27:03.605Z,0.63
2019-01-17T14:29:30.538Z,0.77
2019-01-17T14:31:57.510Z,0.60
2019-01-17T14:34:24.426Z,0.60
2019-01-17T14:36:51.367Z,0.70
2019-01-17T14:39:18.214Z,0.70
2019-01-17T14:41:45.244Z,0.60
2019-01-17T14:44:12.065Z,1.03
2019-01-17T14:46:39.014Z,0.60
2019-01-17T14:49:05.833Z,0.73
2019-01-17T14:51:32.859Z,0.60
2019-01-17T14:53:59.701Z,0.60
2019-01-17T14:56:26.517Z,0.77
2019-01-17T14:58:53.546Z,0.90
2019-01-17T15:01:20.385Z,0.53
2019-01-17T15:03:47.194Z,0.50
2019-01-17T15:06:14.107Z,0.50
2019-01-17T15:08:40.956Z,0.60
2019-01-17T15:11:07.770Z,0.37
2019-01-17T15:13:34.576Z,0.40
2019-01-17T15:16:01.510Z,0.33
2019-01-17T15:18:28.551Z,0.53
2019-01-17T15:20:55.441Z,0.40
2019-01-17T15:23:22.274Z,0.60
2019-01-17T15:25:49.074Z,0.40
2019-01-17T15:28:15.969Z,0.60
2019-01-17T15:30:42.794Z,0.47
2019-01-17T15:33:09.627Z,0.50
2019-01-17T15:35:36.570Z,0.50
2019-01-17T15:38:03.606Z,0.50
2019-01-17T15:40:30.694Z,0.50
2019-01-17T15:42:58.439Z,0.60
2019-01-17T15:45:25.481Z,0.60
2019-01-17T15:47:52.283Z,0.50
2019-01-17T15:50:19.300Z,0.80
2019-01-17T15:52:46.417Z,1.07
2019-01-17T15:55:13.787Z,0.83
2019-01-17T15:57:40.782Z,1.00
2019-01-17T16:00:12.561Z,0.90
2019-01-17T16:02:39.548Z,2.13
2019-01-17T16:05:06.621Z,1.40
2019-01-17T16:07:33.573Z,1.30
2019-01-17T16:10:00.377Z,1.90
2019-01-17T16:12:27.185Z,1.90
2019-01-17T16:14:54.130Z,1.43
2019-01-17T16:17:20.927Z,2.57
2019-01-17T16:19:47.746Z,2.27
2019-01-17T16:22:14.688Z,2.30
2019-01-17T16:24:41.522Z,2.37
2019-01-17T16:27:08.463Z,1.50
2019-01-17T16:29:35.394Z,1.10
2019-01-17T16:32:02.397Z,0.80
2019-01-17T16:34:29.310Z,0.30
2019-01-17T16:36:56.364Z,0.30
2019-01-17T16:39:23.198Z,0.30
2019-01-17T16:41:50.824Z,0.37
2019-01-17T16:44:17.857Z,0.37
2019-01-17T16:46:44.654Z,0.20
2019-01-17T16:49:11.464Z,0.30
2019-01-17T16:51:38.286Z,0.40
2019-01-17T16:54:05.273Z,0.27
2019-01-17T16:56:32.197Z,0.50
2019-01-17T16:58:59.142Z,0.50
2019-01-17T17:01:25.937Z,0.50
2019-01-17T17:03:52.734Z,0.50
2019-01-17T17:06:19.673Z,0.60
2019-01-17T17:08:46.673Z,0.67
2019-01-17T17:11:13.589Z,0.57
2019-01-17T17:13:40.426Z,0.67
2019-01-17T17:16:07.422Z,0.50
2019-01-17T17:18:34.313Z,0.50
2019-01-17T17:21:01.253Z,0.70
2019-01-17T17:23:28.258Z,0.47
2019-01-17T17:25:55.077Z,0.40
2019-01-17T17:28:22.026Z,0.57
2019-01-17T17:30:48.918Z,0.30
2019-01-17T17:33:15.718Z,0.53
2019-01-17T17:35:42.567Z,0.40
2019-01-17T17:38:09.578Z,0.50
2019-01-17T17:40:36.471Z,0.63
2019-01-17T17:43:03.605Z,0.37
2019-01-17T17:45:30.626Z,0.30
2019-01-17T17:47:59.339Z,0.50
2019-01-17T17:50:26.384Z,1.47
2019-01-17T17:52:53.408Z,1.43
2019-01-17T17:55:20.311Z,0.80
2019-01-17T17:57:47.542Z,0.60
2019-01-17T18:00:21.841Z,1.00
2019-01-17T18:02:49.122Z,0.30
2019-01-17T18:05:16.229Z,0.50
2019-01-17T18:07:43.182Z,0.70
2019-01-17T18:10:12.167Z,0.60
2019-01-17T18:12:39.261Z,0.70
2019-01-17T18:15:08.162Z,0.20
2019-01-17T18:17:35.006Z,0.57
2019-01-17T18:20:03.493Z,0.60
2019-01-17T18:22:30.309Z,0.80
2019-01-17T18:24:57.146Z,0.60
2019-01-17T18:27:23.962Z,0.70
2019-01-17T18:29:51.003Z,0.97
2019-01-17T18:32:18.048Z,0.60
2019-01-17T18:34:45.139Z,0.50
2019-01-17T18:37:12.045Z,0.60
2019-01-17T18:39:39.292Z,1.07
2019-01-17T18:42:06.196Z,0.90
2019-01-17T18:44:33.015Z,0.43
2019-01-17T18:47:00.073Z,0.83
2019-01-17T18:49:26.875Z,0.70
2019-01-17T18:51:53.881Z,0.50
2019-01-17T18:54:20.717Z,0.40
2019-01-17T18:56:47.715Z,0.50
2019-01-17T18:59:14.706Z,0.30
2019-01-17T19:01:41.638Z,0.50
2019-01-17T19:04:08.633Z,0.43
2019-01-17T19:06:35.541Z,0.50
2019-01-17T19:09:05.863Z,0.30
2019-01-17T19:11:32.653Z,0.30
2019-01-17T19:13:59.674Z,0.50
2019-01-17T19:16:26.522Z,0.30
2019-01-17T19:18:53.342Z,0.40
2019-01-17T19:21:20.343Z,0.40
2019-01-17T19:23:47.314Z,0.60
2019-01-17T19:26:14.278Z,0.30
2019-01-17T19:28:41.086Z,0.40
2019-01-17T19:31:07.926Z,0.40
2019-01-17T19:33:34.817Z,0.50
2019-01-17T19:36:01.853Z,0.50
2019-01-17T19:38:28.941Z,0.50
2019-01-17T19:40:55.849Z,0.77
2019-01-17T19:43:22.889Z,0.50
2019-01-17T19:45:49.746Z,0.40
2019-01-17T19:48:16.558Z,0.50
2019-01-17T19:50:43.497Z,0.43
2019-01-17T19:53:10.568Z,0.40
2019-01-17T19:55:37.572Z,0.50
2019-01-17T19:58:04.579Z,0.50
2019-01-17T20:00:31.519Z,0.43
2019-01-17T20:02:58.510Z,0.37
2019-01-17T20:05:26.797Z,0.50
2019-01-17T20:07:53.737Z,0.50
2019-01-17T20:10:25.920Z,0.50
2019-01-17T20:12:52.924Z,0.47
2019-01-17T20:15:21.324Z,0.50
2019-01-17T20:17:48.421Z,0.40
2019-01-17T20:20:15.906Z,0.60
2019-01-17T20:22:42.966Z,0.63
2019-01-17T20:25:10.167Z,0.53
2019-01-17T20:27:37.060Z,0.43
2019-01-17T20:30:08.323Z,0.60
2019-01-17T20:32:35.259Z,0.50
2019-01-17T20:35:02.176Z,0.50
2019-01-17T20:37:29.103Z,0.50
2019-01-17T20:39:56.012Z,0.40
2019-01-17T20:42:22.832Z,0.70
2019-01-17T20:44:49.907Z,0.70
2019-01-17T20:47:16.858Z,0.80
2019-01-17T20:49:43.872Z,1.17
2019-01-17T20:52:10.722Z,0.43
2019-01-17T20:54:37.549Z,0.80
2019-01-17T20:57:05.605Z,0.50
2019-01-17T20:59:32.463Z,0.60
2019-01-17T21:02:14.842Z,0.60
2019-01-17T21:04:41.690Z,0.60
2019-01-17T21:07:08.821Z,0.60
2019-01-17T21:09:35.757Z,0.57
2019-01-17T21:12:03.181Z,0.73
2019-01-17T21:14:30.187Z,0.70
2019-01-17T21:16:57.077Z,0.77
2019-01-17T21:19:24.117Z,0.60
2019-01-17T21:21:51.042Z,0.93
2019-01-17T21:24:17.993Z,0.53
2019-01-17T21:26:44.889Z,0.70
2019-01-17T21:29:12.083Z,0.33
2019-01-17T21:31:39.037Z,0.57
2019-01-17T21:34:06.126Z,0.50
2019-01-17T21:36:33.201Z,0.50
2019-01-17T21:39:00.095Z,0.57
2019-01-17T21:41:27.174Z,0.70
2019-01-17T21:43:54.009Z,0.57
2019-01-17T21:46:20.922Z,0.70
2019-01-17T21:48:47.772Z,0.50
2019-01-17T21:51:14.701Z,0.50
2019-01-17T21:53:41.624Z,0.60
2019-01-17T21:56:08.591Z,0.40
2019-01-17T21:58:35.531Z,0.80
2019-01-17T22:01:02.523Z,0.63
2019-01-17T22:03:29.618Z,0.80
2019-01-17T22:05:56.634Z,0.60
2019-01-17T22:08:23.459Z,0.40
2019-01-17T22:10:50.404Z,0.60
2019-01-17T22:13:17.313Z,0.80
2019-01-17T22:15:45.919Z,0.50
2019-01-17T22:18:12.789Z,0.40
2019-01-17T22:20:40.123Z,0.60
2019-01-17T22:23:07.085Z,0.73
2019-01-17T22:25:33.942Z,0.70
2019-01-17T22:28:00.989Z,0.60
2019-01-17T22:30:28.082Z,0.90
2019-01-17T22:32:55.146Z,0.50
2019-01-17T22:35:22.109Z,0.90
2019-01-17T22:37:48.968Z,0.60
2019-01-17T22:40:16.237Z,0.57
2019-01-17T22:42:43.155Z,0.70
2019-01-17T22:45:15.577Z,0.53
2019-01-17T22:47:43.260Z,0.80
2019-01-17T22:50:12.354Z,0.60
2019-01-17T22:52:39.391Z,0.60
2019-01-17T22:55:06.622Z,0.70
2019-01-17T22:57:33.422Z,0.70
2019-01-17T23:00:00.403Z,0.60
2019-01-17T23:02:27.550Z,0.70
2019-01-17T23:04:54.569Z,0.60
2019-01-17T23:07:21.481Z,0.60
2019-01-17T23:09:48.346Z,0.63
2019-01-17T23:12:15.301Z,0.50
2019-01-17T23:14:42.329Z,0.70
2019-01-17T23:17:09.269Z,0.20
2019-01-17T23:19:36.279Z,0.70
2019-01-17T23:22:03.375Z,0.70
2019-01-17T23:24:30.322Z,0.70
2019-01-17T23:26:57.233Z,0.30
2019-01-17T23:29:24.142Z,0.50
2019-01-17T23:31:51.270Z,0.60
2019-01-17T23:34:18.100Z,0.60
2019-01-17T23:36:48.717Z,0.40
2019-01-17T23:39:13.757Z,0.67
2019-01-17T23:41:40.556Z,0.50
2019-01-17T23:44:07.367Z,0.47
2019-01-17T23:46:34.318Z,0.67
2019-01-17T23:49:01.342Z,0.70
2019-01-17T23:51:28.287Z,0.90
2019-01-17T23:53:55.130Z,0.60
2019-01-17T23:56:22.025Z,0.73
2019-01-17T23:58:48.942Z,0.60
